createdAt,value
2017-12-26T00:02:03.486Z,95.90
2017-12-26T00:04:31.062Z,95.40
2017-12-26T00:06:58.607Z,95.00
2017-12-26T00:09:26.144Z,94.70
2017-12-26T00:11:53.742Z,94.50
2017-12-26T00:14:21.260Z,94.20
2017-12-26T00:16:48.897Z,94.00
2017-12-26T00:19:16.438Z,93.90
2017-12-26T00:21:44.058Z,93.90
2017-12-26T00:24:11.578Z,93.50
2017-12-26T00:26:39.954Z,93.10
2017-12-26T00:29:07.484Z,93.30
2017-12-26T00:31:35.805Z,93.30
2017-12-26T00:34:04.198Z,93.30
2017-12-26T00:36:31.739Z,93.30
2017-12-26T00:38:59.274Z,93.30
2017-12-26T00:41:26.814Z,93.30
2017-12-26T00:43:54.335Z,93.30
2017-12-26T00:46:21.931Z,93.20
2017-12-26T00:48:49.453Z,93.40
2017-12-26T00:51:16.995Z,93.20
2017-12-26T00:53:44.518Z,93.20
2017-12-26T00:56:12.068Z,93.20
2017-12-26T00:58:39.592Z,93.20
2017-12-26T01:01:07.237Z,92.90
2017-12-26T01:03:34.811Z,92.80
2017-12-26T01:06:02.410Z,92.60
2017-12-26T01:08:29.945Z,92.70
2017-12-26T01:10:57.566Z,92.30
2017-12-26T01:13:25.168Z,91.90
2017-12-26T01:15:52.687Z,91.80
2017-12-26T01:18:21.745Z,91.70
2017-12-26T01:20:49.273Z,91.70
2017-12-26T01:23:16.828Z,91.70
2017-12-26T01:25:44.357Z,91.70
2017-12-26T01:28:11.898Z,91.70
2017-12-26T01:30:39.431Z,91.60
2017-12-26T01:33:07.188Z,91.60
2017-12-26T01:35:34.768Z,91.60
2017-12-26T01:38:02.311Z,91.70
2017-12-26T01:40:30.263Z,91.90
2017-12-26T01:42:57.824Z,91.90
2017-12-26T01:45:25.358Z,92.00
2017-12-26T01:47:53.010Z,92.00
2017-12-26T01:50:20.534Z,91.90
2017-12-26T01:52:48.101Z,91.70
2017-12-26T01:55:15.644Z,91.60
2017-12-26T01:57:43.182Z,91.60
2017-12-26T02:00:10.837Z,91.60
2017-12-26T02:02:38.402Z,91.60
2017-12-26T02:05:06.756Z,91.60
2017-12-26T02:07:34.442Z,91.70
2017-12-26T02:10:01.990Z,91.90
2017-12-26T02:12:29.538Z,91.60
2017-12-26T02:14:57.843Z,91.40
2017-12-26T02:17:26.181Z,91.60
2017-12-26T02:19:53.837Z,91.60
2017-12-26T02:22:22.151Z,91.60
2017-12-26T02:24:50.444Z,91.30
2017-12-26T02:27:18.302Z,91.30
2017-12-26T02:29:45.994Z,91.30
2017-12-26T02:32:13.561Z,91.30
2017-12-26T02:34:41.320Z,91.20
2017-12-26T02:37:09.611Z,91.40
2017-12-26T02:39:37.227Z,91.40
2017-12-26T02:42:04.750Z,91.40
2017-12-26T02:44:32.314Z,91.50
2017-12-26T02:46:59.894Z,91.60
2017-12-26T02:49:27.476Z,91.50
2017-12-26T02:51:54.999Z,91.50
2017-12-26T02:54:22.534Z,91.60
2017-12-26T02:56:50.059Z,91.50
2017-12-26T02:59:17.627Z,91.50
2017-12-26T03:01:45.147Z,91.60
2017-12-26T03:04:12.691Z,91.60
2017-12-26T03:06:40.229Z,91.60
2017-12-26T03:09:07.789Z,91.70
2017-12-26T03:11:35.322Z,91.60
2017-12-26T03:14:03.651Z,91.60
2017-12-26T03:16:31.219Z,91.60
2017-12-26T03:18:59.622Z,91.80
2017-12-26T03:21:27.910Z,91.60
2017-12-26T03:23:56.211Z,91.70
2017-12-26T03:26:24.535Z,91.70
2017-12-26T03:28:52.140Z,91.70
2017-12-26T03:31:19.673Z,92.00
2017-12-26T03:33:47.996Z,91.60
2017-12-26T03:36:16.290Z,91.40
2017-12-26T03:38:44.624Z,91.50
2017-12-26T03:41:12.161Z,91.50
2017-12-26T03:43:39.692Z,91.60
2017-12-26T03:46:07.235Z,91.40
2017-12-26T03:48:35.533Z,91.60
2017-12-26T03:51:03.845Z,91.40
2017-12-26T03:53:32.185Z,91.60
2017-12-26T03:55:59.730Z,91.50
2017-12-26T03:58:28.062Z,91.40
2017-12-26T04:00:55.612Z,91.20
2017-12-26T04:03:24.643Z,91.10
2017-12-26T04:05:52.946Z,91.10
2017-12-26T04:08:21.292Z,91.10
2017-12-26T04:10:48.844Z,91.10
2017-12-26T04:13:16.385Z,91.30
2017-12-26T04:15:43.927Z,91.50
2017-12-26T04:18:11.457Z,91.40
2017-12-26T04:20:38.998Z,91.60
2017-12-26T04:23:06.537Z,91.50
2017-12-26T04:25:34.092Z,91.30
2017-12-26T04:28:01.615Z,91.20
2017-12-26T04:30:29.928Z,91.20
2017-12-26T04:32:58.228Z,91.10
2017-12-26T04:35:26.549Z,91.00
2017-12-26T04:37:54.071Z,91.00
2017-12-26T04:40:21.618Z,91.10
2017-12-26T04:42:49.147Z,91.00
2017-12-26T04:45:16.705Z,90.90
2017-12-26T04:47:44.243Z,91.00
2017-12-26T04:50:12.560Z,90.90
2017-12-26T04:52:40.079Z,90.90
2017-12-26T04:55:07.639Z,90.80
2017-12-26T04:57:35.169Z,90.70
2017-12-26T05:00:02.700Z,90.60
2017-12-26T05:02:30.305Z,90.50
2017-12-26T05:04:57.827Z,90.50
2017-12-26T05:07:25.476Z,90.50
2017-12-26T05:09:53.061Z,90.50
2017-12-26T05:12:20.640Z,90.50
2017-12-26T05:14:48.221Z,90.50
2017-12-26T05:17:15.772Z,90.30
2017-12-26T05:19:44.075Z,90.10
2017-12-26T05:22:11.698Z,90.10
2017-12-26T05:24:39.226Z,90.00
2017-12-26T05:27:06.777Z,90.20
2017-12-26T05:29:34.312Z,90.20
2017-12-26T05:32:01.856Z,90.20
2017-12-26T05:34:29.418Z,90.20
2017-12-26T05:36:56.958Z,90.10
2017-12-26T05:39:24.481Z,90.00
2017-12-26T05:41:52.067Z,90.10
2017-12-26T05:44:19.602Z,90.20
2017-12-26T05:46:47.233Z,90.30
2017-12-26T05:49:15.525Z,89.70
2017-12-26T05:51:43.839Z,89.40
2017-12-26T05:54:11.369Z,89.40
2017-12-26T05:56:39.015Z,89.40
2017-12-26T05:59:06.543Z,89.10
2017-12-26T06:01:34.104Z,88.60
2017-12-26T06:04:01.676Z,88.70
2017-12-26T06:06:29.219Z,88.80
2017-12-26T06:08:56.738Z,88.40
2017-12-26T06:11:24.290Z,88.30
2017-12-26T06:13:52.609Z,88.40
2017-12-26T06:16:20.127Z,88.30
2017-12-26T06:18:47.671Z,87.60
2017-12-26T06:21:15.975Z,87.70
2017-12-26T06:23:44.283Z,87.50
2017-12-26T06:26:11.874Z,87.50
2017-12-26T06:28:39.428Z,87.50
2017-12-26T06:31:06.960Z,87.40
2017-12-26T06:33:34.528Z,87.60
2017-12-26T06:36:02.058Z,87.70
2017-12-26T06:38:29.602Z,87.80
2017-12-26T06:40:57.124Z,88.20
2017-12-26T06:43:24.660Z,87.90
2017-12-26T06:45:52.188Z,87.70
2017-12-26T06:48:19.745Z,87.50
2017-12-26T06:50:47.322Z,87.00
2017-12-26T06:53:14.855Z,87.00
2017-12-26T06:55:42.393Z,87.40
2017-12-26T06:58:09.953Z,86.90
2017-12-26T07:00:38.261Z,86.90
2017-12-26T07:03:06.570Z,86.80
2017-12-26T07:05:34.159Z,86.80
2017-12-26T07:08:01.718Z,87.10
2017-12-26T07:10:30.022Z,87.10
2017-12-26T07:12:58.326Z,87.20
2017-12-26T07:15:26.660Z,87.20
2017-12-26T07:17:54.210Z,87.10
2017-12-26T07:20:28.163Z,86.90
2017-12-26T07:22:55.716Z,86.90
2017-12-26T07:25:23.249Z,86.60
2017-12-26T07:27:50.804Z,86.50
2017-12-26T07:30:19.117Z,86.30
2017-12-26T07:32:46.635Z,86.40
2017-12-26T07:35:14.190Z,86.50
2017-12-26T07:37:41.721Z,86.40
2017-12-26T07:40:09.269Z,86.60
2017-12-26T07:42:36.866Z,86.30
2017-12-26T07:45:04.410Z,85.80
2017-12-26T07:47:31.970Z,86.20
2017-12-26T07:49:59.621Z,86.10
2017-12-26T07:52:27.291Z,86.20
2017-12-26T07:54:54.884Z,86.20
2017-12-26T07:57:22.427Z,86.10
2017-12-26T07:59:49.975Z,86.10
2017-12-26T08:02:17.548Z,85.50
2017-12-26T08:04:45.117Z,85.50
2017-12-26T08:07:13.430Z,85.10
2017-12-26T08:09:41.734Z,84.70
2017-12-26T08:12:10.016Z,84.70
2017-12-26T08:14:37.566Z,84.70
2017-12-26T08:17:05.444Z,84.80
2017-12-26T08:19:32.991Z,84.80
2017-12-26T08:22:01.327Z,85.20
2017-12-26T08:24:28.899Z,84.80
2017-12-26T08:26:57.215Z,84.90
2017-12-26T08:29:24.769Z,84.80
2017-12-26T08:31:53.112Z,84.10
2017-12-26T08:34:20.677Z,84.70
2017-12-26T08:36:48.958Z,82.90
2017-12-26T08:39:18.008Z,82.30
2017-12-26T08:41:45.545Z,82.30
2017-12-26T08:44:13.101Z,82.10
2017-12-26T08:46:40.619Z,82.20
2017-12-26T08:49:08.155Z,81.80
2017-12-26T08:51:35.707Z,81.90
2017-12-26T08:54:03.238Z,81.70
2017-12-26T08:56:30.791Z,81.30
2017-12-26T08:58:59.085Z,81.30
2017-12-26T09:01:27.410Z,81.00
2017-12-26T09:03:54.938Z,81.00
2017-12-26T09:06:22.493Z,80.90
2017-12-26T09:08:50.025Z,80.30
2017-12-26T09:11:17.577Z,79.80
2017-12-26T09:13:45.118Z,78.80
2017-12-26T09:16:13.428Z,79.10
2017-12-26T09:18:40.966Z,79.00
2017-12-26T09:21:08.519Z,79.60
2017-12-26T09:23:36.100Z,78.10
2017-12-26T09:26:03.643Z,77.80
2017-12-26T09:28:31.172Z,77.80
2017-12-26T09:30:58.714Z,76.80
2017-12-26T09:33:27.009Z,76.30
2017-12-26T09:35:54.644Z,76.20
2017-12-26T09:38:22.176Z,75.90
2017-12-26T09:40:49.715Z,75.50
2017-12-26T09:43:17.307Z,75.20
2017-12-26T09:45:44.866Z,75.10
2017-12-26T09:48:12.463Z,74.60
2017-12-26T09:50:40.003Z,74.80
2017-12-26T09:53:07.630Z,74.00
2017-12-26T09:55:35.210Z,74.40
2017-12-26T09:58:02.733Z,74.10
2017-12-26T10:00:30.264Z,73.60
2017-12-26T10:02:57.806Z,73.50
2017-12-26T10:05:25.339Z,74.00
2017-12-26T10:07:52.903Z,74.20
2017-12-26T10:10:21.190Z,74.30
2017-12-26T10:12:48.746Z,74.20
2017-12-26T10:15:16.285Z,74.30
2017-12-26T10:17:44.591Z,73.30
2017-12-26T10:20:12.885Z,73.30
2017-12-26T10:22:41.190Z,73.60
2017-12-26T10:25:09.489Z,73.70
2017-12-26T10:27:37.913Z,71.70
2017-12-26T10:30:05.446Z,71.80
2017-12-26T10:32:32.995Z,70.80
2017-12-26T10:35:00.534Z,71.10
2017-12-26T10:37:28.864Z,69.40
2017-12-26T10:39:57.320Z,70.40
2017-12-26T10:42:25.983Z,69.40
2017-12-26T10:44:54.291Z,68.40
2017-12-26T10:47:21.847Z,68.90
2017-12-26T10:49:50.172Z,69.70
2017-12-26T10:52:18.513Z,68.70
2017-12-26T10:54:46.815Z,68.80
2017-12-26T10:57:14.372Z,68.80
2017-12-26T10:59:42.681Z,68.70
2017-12-26T11:02:10.230Z,68.70
2017-12-26T11:07:12.546Z,68.50
2017-12-26T11:09:40.879Z,68.20
2017-12-26T11:12:08.434Z,68.10
2017-12-26T11:14:35.972Z,66.90
2017-12-26T11:17:03.525Z,66.50
2017-12-26T11:19:31.184Z,65.90
2017-12-26T11:21:58.718Z,65.20
2017-12-26T11:24:27.077Z,62.70
2017-12-26T11:26:55.358Z,63.50
2017-12-26T11:29:22.922Z,63.40
2017-12-26T11:31:50.543Z,64.10
2017-12-26T11:34:18.110Z,63.60
2017-12-26T11:36:45.640Z,63.90
2017-12-26T11:39:13.195Z,64.20
2017-12-26T11:41:40.833Z,63.80
2017-12-26T11:44:08.401Z,64.10
2017-12-26T11:46:35.959Z,65.00
2017-12-26T11:49:03.521Z,66.30
2017-12-26T11:51:31.828Z,66.70
2017-12-26T11:53:59.398Z,66.90
2017-12-26T11:56:27.935Z,67.50
2017-12-26T11:58:56.255Z,67.20
2017-12-26T12:01:23.802Z,67.80
2017-12-26T12:03:51.457Z,67.90
2017-12-26T12:06:19.762Z,67.70
2017-12-26T12:08:47.315Z,67.70
2017-12-26T12:11:14.862Z,67.30
2017-12-26T12:13:43.198Z,67.40
2017-12-26T12:16:12.462Z,66.80
2017-12-26T12:18:40.783Z,67.60
2017-12-26T12:21:08.315Z,67.50
2017-12-26T12:23:35.884Z,70.50
2017-12-26T12:26:03.412Z,70.10
2017-12-26T12:28:30.995Z,71.10
2017-12-26T12:30:59.301Z,73.30
2017-12-26T12:33:26.832Z,73.30
2017-12-26T12:35:55.238Z,73.90
2017-12-26T12:38:22.790Z,74.20
2017-12-26T12:40:50.340Z,75.40
2017-12-26T12:43:18.646Z,76.80
2017-12-26T12:45:46.990Z,76.30
2017-12-26T12:48:14.526Z,76.00
2017-12-26T12:50:42.107Z,76.00
2017-12-26T12:53:10.407Z,76.20
2017-12-26T12:55:37.964Z,76.20
2017-12-26T12:58:05.525Z,75.10
2017-12-26T13:00:33.850Z,73.40
2017-12-26T13:03:01.381Z,73.40
2017-12-26T13:05:29.709Z,72.50
2017-12-26T13:07:58.019Z,73.30
2017-12-26T13:10:26.340Z,73.50
2017-12-26T13:12:53.890Z,73.40
2017-12-26T13:15:21.535Z,72.40
2017-12-26T13:17:49.068Z,72.80
2017-12-26T13:20:16.608Z,72.80
2017-12-26T13:22:44.136Z,73.00
2017-12-26T13:25:11.760Z,73.20
2017-12-26T13:27:39.283Z,73.10
2017-12-26T13:30:06.931Z,72.60
2017-12-26T13:32:34.525Z,73.20
2017-12-26T13:35:02.071Z,71.70
2017-12-26T13:37:30.369Z,70.50
2017-12-26T13:39:57.912Z,70.50
2017-12-26T13:42:25.440Z,71.10
2017-12-26T13:44:53.750Z,70.80
2017-12-26T13:47:22.031Z,71.10
2017-12-26T13:49:49.569Z,71.00
2017-12-26T13:52:17.111Z,71.60
2017-12-26T13:54:45.422Z,72.20
2017-12-26T13:57:13.730Z,72.30
2017-12-26T13:59:42.019Z,72.30
2017-12-26T14:02:10.916Z,72.10
2017-12-26T14:04:38.450Z,72.10
2017-12-26T14:07:06.770Z,73.60
2017-12-26T14:09:34.295Z,73.50
2017-12-26T14:12:03.355Z,72.60
2017-12-26T14:14:30.879Z,72.50
2017-12-26T14:16:58.427Z,73.90
2017-12-26T14:19:26.002Z,74.30
2017-12-26T14:21:53.590Z,74.30
2017-12-26T14:24:21.116Z,74.90
2017-12-26T14:26:48.662Z,74.90
2017-12-26T14:29:16.202Z,74.80
2017-12-26T14:31:43.756Z,75.40
2017-12-26T14:34:11.273Z,75.70
2017-12-26T14:36:38.814Z,76.00
2017-12-26T14:39:06.407Z,76.60
2017-12-26T14:41:33.965Z,76.50
2017-12-26T14:44:02.265Z,77.50
2017-12-26T14:46:30.571Z,77.40
2017-12-26T14:48:58.855Z,77.60
2017-12-26T14:51:26.478Z,77.50
2017-12-26T14:53:54.003Z,78.00
2017-12-26T14:56:21.556Z,78.40
2017-12-26T14:58:49.131Z,78.40
2017-12-26T15:01:16.718Z,78.50
2017-12-26T15:03:44.240Z,79.00
2017-12-26T15:06:11.758Z,79.30
2017-12-26T15:08:40.073Z,79.50
2017-12-26T15:11:08.381Z,80.30
2017-12-26T15:13:35.937Z,80.30
2017-12-26T15:16:03.462Z,80.20
2017-12-26T15:18:31.012Z,80.50
2017-12-26T15:20:59.323Z,82.40
2017-12-26T15:23:27.668Z,81.90
2017-12-26T15:25:55.296Z,81.70
2017-12-26T15:28:23.636Z,82.40
2017-12-26T15:30:51.158Z,82.40
2017-12-26T15:33:18.698Z,82.80
2017-12-26T15:35:46.229Z,82.70
2017-12-26T15:38:13.774Z,83.10
2017-12-26T15:40:41.305Z,83.30
2017-12-26T15:43:08.939Z,83.70
2017-12-26T15:45:36.463Z,83.90
2017-12-26T15:48:04.004Z,84.60
2017-12-26T15:50:31.552Z,84.80
2017-12-26T15:52:59.094Z,84.80
2017-12-26T15:55:26.621Z,85.00
2017-12-26T15:57:54.177Z,84.70
2017-12-26T16:00:21.752Z,85.40
2017-12-26T16:02:49.326Z,85.40
2017-12-26T16:05:16.853Z,85.40
2017-12-26T16:07:44.393Z,85.30
2017-12-26T16:10:11.926Z,85.40
2017-12-26T16:12:40.278Z,85.20
2017-12-26T16:15:08.581Z,85.20
2017-12-26T16:17:36.102Z,85.20
2017-12-26T16:20:03.658Z,85.50
2017-12-26T16:22:31.187Z,85.80
2017-12-26T16:24:59.510Z,85.10
2017-12-26T16:27:27.044Z,84.70
2017-12-26T16:29:54.667Z,85.20
2017-12-26T16:32:22.197Z,84.40
2017-12-26T16:34:49.755Z,84.50
2017-12-26T16:37:18.567Z,85.20
2017-12-26T16:39:46.889Z,84.90
2017-12-26T16:42:14.435Z,84.90
2017-12-26T16:44:42.011Z,85.00
2017-12-26T16:47:09.548Z,85.20
2017-12-26T16:49:37.857Z,84.90
2017-12-26T16:52:05.434Z,84.80
2017-12-26T16:54:32.993Z,84.70
2017-12-26T16:57:00.530Z,83.70
2017-12-26T16:59:28.085Z,83.60
2017-12-26T17:01:55.606Z,83.50
2017-12-26T17:04:23.147Z,83.40
2017-12-26T17:06:51.438Z,83.30
2017-12-26T17:09:19.048Z,83.20
2017-12-26T17:11:47.302Z,83.60
2017-12-26T17:14:14.843Z,83.60
2017-12-26T17:16:42.406Z,83.40
2017-12-26T17:19:10.721Z,83.60
2017-12-26T17:21:39.063Z,83.50
2017-12-26T17:24:06.621Z,83.50
2017-12-26T17:26:34.193Z,83.10
2017-12-26T17:29:01.802Z,83.00
2017-12-26T17:31:29.364Z,82.80
2017-12-26T17:33:56.897Z,82.50
2017-12-26T17:36:24.444Z,82.30
2017-12-26T17:38:52.014Z,81.10
2017-12-26T17:41:19.705Z,80.90
2017-12-26T17:43:47.284Z,80.70
2017-12-26T17:46:14.887Z,80.00
2017-12-26T17:48:42.449Z,80.00
2017-12-26T17:51:10.820Z,79.20
2017-12-26T17:53:38.389Z,79.20
2017-12-26T17:56:05.986Z,79.20
2017-12-26T17:58:33.509Z,79.00
2017-12-26T18:01:01.852Z,78.70
2017-12-26T18:03:29.380Z,78.60
2017-12-26T18:05:57.698Z,78.20
2017-12-26T18:08:26.029Z,78.60
2017-12-26T18:10:53.580Z,78.60
2017-12-26T18:13:21.876Z,79.50
2017-12-26T18:15:50.187Z,80.10
2017-12-26T18:18:17.762Z,80.00
2017-12-26T18:20:46.070Z,80.10
2017-12-26T18:23:14.397Z,80.80
2017-12-26T18:25:42.717Z,80.10
2017-12-26T18:28:10.253Z,80.10
2017-12-26T18:30:38.566Z,80.90
2017-12-26T18:33:06.907Z,81.00
2017-12-26T18:35:34.459Z,81.00
2017-12-26T18:38:01.995Z,80.90
2017-12-26T18:40:29.580Z,81.00
2017-12-26T18:42:57.113Z,81.00
2017-12-26T18:45:24.641Z,81.00
2017-12-26T18:47:52.204Z,80.80
2017-12-26T18:50:19.735Z,80.70
2017-12-26T18:52:47.291Z,80.90
2017-12-26T18:55:14.828Z,81.50
2017-12-26T18:57:42.393Z,80.60
2017-12-26T19:00:10.712Z,80.60
2017-12-26T19:02:39.071Z,79.40
2017-12-26T19:05:06.646Z,79.40
2017-12-26T19:07:34.242Z,79.80
2017-12-26T19:10:01.762Z,79.20
2017-12-26T19:12:30.123Z,79.70
2017-12-26T19:14:57.649Z,79.60
2017-12-26T19:17:25.972Z,79.20
2017-12-26T19:19:53.503Z,79.10
2017-12-26T19:22:21.159Z,79.60
2017-12-26T19:24:48.792Z,79.70
2017-12-26T19:27:16.394Z,80.10
2017-12-26T19:29:43.963Z,80.40
2017-12-26T19:32:11.566Z,80.60
2017-12-26T19:34:39.134Z,80.60
2017-12-26T19:37:07.452Z,80.60
2017-12-26T19:39:35.013Z,81.20
2017-12-26T19:42:02.614Z,80.60
2017-12-26T19:44:30.129Z,80.20
2017-12-26T19:46:58.499Z,80.60
2017-12-26T19:49:26.081Z,80.60
2017-12-26T19:51:53.777Z,80.60
2017-12-26T19:54:22.128Z,80.60
2017-12-26T19:56:49.739Z,80.60
2017-12-26T19:59:17.344Z,80.60
2017-12-26T20:01:44.913Z,80.60
2017-12-26T20:04:12.523Z,80.80
2017-12-26T20:06:40.084Z,80.60
2017-12-26T20:09:07.677Z,80.60
2017-12-26T20:11:35.232Z,80.70
2017-12-26T20:14:02.821Z,81.00
2017-12-26T20:16:30.389Z,80.70
2017-12-26T20:18:58.746Z,81.10
2017-12-26T20:21:26.314Z,81.10
2017-12-26T20:23:53.892Z,81.20
2017-12-26T20:26:21.456Z,81.20
2017-12-26T20:28:54.723Z,81.00
2017-12-26T20:31:22.275Z,81.10
2017-12-26T20:33:49.891Z,81.10
2017-12-26T20:36:17.471Z,81.00
2017-12-26T20:38:45.072Z,81.20
2017-12-26T20:41:12.743Z,81.10
2017-12-26T20:43:40.337Z,81.10
2017-12-26T20:46:07.928Z,80.80
2017-12-26T20:48:35.854Z,80.60
2017-12-26T20:51:04.205Z,80.50
2017-12-26T20:53:31.832Z,80.50
2017-12-26T20:55:59.410Z,80.60
2017-12-26T20:58:28.526Z,80.40
2017-12-26T21:00:56.119Z,80.40
2017-12-26T21:03:25.226Z,81.30
2017-12-26T21:05:52.806Z,81.30
2017-12-26T21:08:20.404Z,81.60
2017-12-26T21:10:47.963Z,81.50
2017-12-26T21:13:15.535Z,81.30
2017-12-26T21:15:43.120Z,81.40
2017-12-26T21:18:10.711Z,81.40
2017-12-26T21:20:38.343Z,81.20
2017-12-26T21:23:05.923Z,81.00
2017-12-26T21:25:33.527Z,81.20
2017-12-26T21:28:01.114Z,80.80
2017-12-26T21:30:28.722Z,81.00
2017-12-26T21:32:57.057Z,80.90
2017-12-26T21:35:24.637Z,80.90
2017-12-26T21:37:52.500Z,80.90
2017-12-26T21:40:20.102Z,80.70
2017-12-26T21:42:47.674Z,80.80
2017-12-26T21:45:15.277Z,80.80
2017-12-26T21:47:43.608Z,81.20
2017-12-26T21:50:11.277Z,81.10
2017-12-26T21:52:38.855Z,80.90
2017-12-26T21:55:07.228Z,80.30
2017-12-26T21:57:34.802Z,80.30
2017-12-26T22:00:02.389Z,80.00
2017-12-26T22:02:29.987Z,80.20
2017-12-26T22:04:57.581Z,80.00
2017-12-26T22:07:25.176Z,80.30
2017-12-26T22:09:53.529Z,80.80
2017-12-26T22:12:21.131Z,80.70
2017-12-26T22:14:48.712Z,81.00
2017-12-26T22:17:16.285Z,81.20
2017-12-26T22:19:43.879Z,81.50
2017-12-26T22:22:11.471Z,81.80
2017-12-26T22:24:39.165Z,81.70
2017-12-26T22:27:07.525Z,81.80
2017-12-26T22:29:35.114Z,81.70
2017-12-26T22:32:02.797Z,81.70
2017-12-26T22:34:30.388Z,82.00
2017-12-26T22:36:57.991Z,81.70
2017-12-26T22:39:25.576Z,81.50
2017-12-26T22:41:53.198Z,81.60
2017-12-26T22:44:20.792Z,81.20
2017-12-26T22:46:48.370Z,81.90
2017-12-26T22:49:16.694Z,81.70
2017-12-26T22:51:44.285Z,81.70
2017-12-26T22:54:12.619Z,82.20
2017-12-26T22:56:40.197Z,82.10
2017-12-26T22:59:07.761Z,82.20
2017-12-26T23:01:36.099Z,82.70
2017-12-26T23:04:03.669Z,82.70
2017-12-26T23:06:32.010Z,82.50
2017-12-26T23:08:59.592Z,82.50
2017-12-26T23:11:27.186Z,82.90
2017-12-26T23:14:00.468Z,82.90
2017-12-26T23:16:33.870Z,83.10
2017-12-26T23:19:02.229Z,83.30
2017-12-26T23:21:29.843Z,83.30
2017-12-26T23:24:03.858Z,82.20
2017-12-26T23:26:37.060Z,82.10
2017-12-26T23:29:10.410Z,82.10
2017-12-26T23:31:44.375Z,81.90
2017-12-26T23:34:17.617Z,81.90
2017-12-26T23:36:50.934Z,81.70
2017-12-26T23:39:24.078Z,81.70
2017-12-26T23:41:57.431Z,81.60
2017-12-26T23:44:31.533Z,81.90
2017-12-26T23:47:04.906Z,81.80
2017-12-26T23:49:38.885Z,82.70
2017-12-26T23:52:12.034Z,82.20
2017-12-26T23:54:45.125Z,82.80
2017-12-26T23:57:18.331Z,82.60
2017-12-26T23:59:51.589Z,83.00
